• Join FlightAware (Why Join?)
  • Login
  • US Flag 
06:50PM EDT


 

Airport Tracker/Info


-or-


 

Live Flight TrackerFlight Track Log ✈ FLG3735 ✈ 09-May-2013 ✈ KDTW - KALB

Flight Track Log - Related Links

Times and Time Zones

All times are in EDT time to prevent confusion due to time zone crossing. See the FLG3735 flight status page for this flight to view local times or setup timezone preferences in your user account.

Time Position Orientation Groundspeed Altitude Reporting Facility
EDT Latitude Longitude Course Direction KTS MPH feet Rate Location/Type
10:11PM 42.2017 -83.3583 56° Northeast 156 180 1,300  Level Cleveland Center
10:11PM 42.1806 -83.3600 183° South 167 192 2,400 1,860 Climbing Cleveland Center
10:12PM 42.1286 -83.3522 174° South 209 241 4,000 1,860 Climbing Cleveland Center
10:13PM 42.0667 -83.3356 169° South 270 311 6,000 2,400 Climbing Cleveland Center
10:14PM 42.3149 -82.7589 75° East  Level FlightAware Approximate
10:14PM 42.0647 -83.2375 91° East 280 322 8,900  Level Cleveland Center
10:15PM 42.3309 -82.6075 82° East  Level FlightAware Approximate
10:15PM 42.0939 -83.1519 65° Northeast 310 357 10,700  Level Cleveland Center
10:16PM 42.3604 -82.4626 56° Northeast  Level FlightAware Approximate
10:16PM 42.1381 -83.0389 62° Northeast 324 373 12,300  Level Cleveland Center
10:17PM 42.1842 -82.9203 62° Northeast 339 390 13,800 1,500 Climbing Cleveland Center
10:18PM 42.2325 -82.7986 62° Northeast 353 406 15,300 1,440 Climbing Cleveland Center
10:19PM 42.2828 -82.6656 63° Northeast 371 427 16,700 1,380 Climbing Cleveland Center
10:20PM 42.3353 -82.5353 61° Northeast 382 440 18,100 1,380 Climbing Cleveland Center
10:21PM 42.3667 -82.3903 74° East 393 452 19,500 1,440 Climbing Cleveland Center
10:22PM 42.3586 -82.2411 94° East 382 440 21,000 1,200 Climbing Cleveland Center
10:23PM 42.3542 -82.1031 92° East 394 453 22,000 960 Climbing Cleveland Center
10:24PM 42.3458 -81.9486 94° East 411 473 23,000 960 Climbing Cleveland Center
10:25PM 42.3392 -81.7967 93° East 411 473 24,000 720 Climbing Cleveland Center
10:26PM 42.3325 -81.6308 93° East 421 484 24,500 480 Climbing Cleveland Center
10:27PM 42.3236 -81.4536 94° East 427 491 25,000 480 Climbing Cleveland Center
10:28PM 42.3164 -81.2825 93° East 444 511 25,500 480 Climbing Cleveland Center
10:29PM 42.3069 -81.1139 94° East 449 517 26,000 480 Climbing Cleveland Center
10:30PM 42.2969 -80.9397 94° East 454 522 26,500 480 Climbing Cleveland Center
10:31PM 42.2892 -80.7656 93° East 466 536 27,000 480 Climbing Cleveland Center
10:32PM 42.2789 -80.5917 95° East 461 531 27,500 480 Climbing Cleveland Center
10:33PM 42.2683 -80.4175 95° East 461 531 28,000 480 Climbing Cleveland Center
10:34PM 42.2617 -80.2633 93° East 461 531 28,500 480 Climbing Cleveland Center
10:35PM 42.2550 -80.0867 93° East 461 531 29,000 240 Climbing Cleveland Center
10:36PM 42.2750 -79.9181 81° East 456 525 29,000  Level Cleveland Center
10:37PM 42.2925 -79.7411 82° East 463 533 29,000  Level Cleveland Center
10:38PM 42.3097 -79.5667 82° East 463 533 29,000  Level Cleveland Center
10:39PM 42.3269 -79.3897 82° East 469 540 29,000  Level Cleveland Center
10:40PM 42.3458 -79.2067 82° East 475 547 29,000 -60 Level Cleveland Center
10:41PM 42.3644 -79.0292 82° East 475 547 28,900 -840 Descending Cleveland Center
10:42PM 42.3825 -78.8461 82° East 480 552 27,400 -960 Descending Cleveland Center
10:43PM 42.3986 -78.6825 82° East 475 547 27,000 -240 Descending Cleveland Center
10:44PM 42.4128 -78.5244 83° East 444 511 27,000  Level Cleveland Center
10:45PM 42.4264 -78.3639 83° East 431 496 27,000  Level Cleveland Center
10:46PM 42.4419 -78.2000 83° East 431 496 27,000  Level Cleveland Center
10:47PM 42.4569 -78.0333 83° East 431 496 27,000  Level Cleveland Center
10:48PM 42.4719 -77.8611 83° East 445 512 27,000  Level Cleveland Center
10:49PM 42.4844 -77.6917 84° East 450 518 27,000  Level Cleveland Center
10:50PM 42.4989 -77.5219 83° East 450 518 27,000  Level Cleveland Center
10:51PM 42.5144 -77.3294 84° East 450 518 27,000  Level Cleveland Center
10:52PM 42.5303 -77.1569 83° East 461 531 27,000  Level Cleveland Center
10:55PM 42.5628 -76.7453 84° East 461 531 27,000  Level Boston Center
10:56PM 42.5753 -76.5711 84° East 461 531 27,000  Level Boston Center
10:57PM 42.5878 -76.3972 84° East 461 531 27,000  Level Boston Center
10:58PM 42.6028 -76.2033 84° East 461 531 27,000  Level Boston Center
10:59PM 42.6147 -76.0319 85° East 461 531 27,000  Level Boston Center
11:00PM 42.6283 -75.8550 84° East 461 531 27,000  Level Boston Center
11:01PM 42.6375 -75.6831 86° East 461 531 27,000 -60 Level Boston Center
11:02PM 42.6486 -75.5086 85° East 461 531 26,900  Descending Boston Center
11:03PM 42.6617 -75.3342 84° East 461 531 27,000 -900 Climbing Boston Center
11:04PM 42.6700 -75.1622 86° East 461 531 25,200 -2,160 Descending Boston Center
11:05PM 42.6819 -75.0075 84° East 439 505 22,300 -2,940 Descending Boston Center
11:06PM 42.6922 -74.8272 86° East 413 475 18,800 -3,180 Descending Boston Center
11:07PM 42.6989 -74.6975 86° East 385 443 16,000 -3,000 Descending Boston Center
11:08PM 42.7075 -74.5819 84° East 365 420 13,500 -2,820 Descending Boston Center
11:09PM 42.7139 -74.4519 86° East 346 398 11,100 -1,380 Descending Boston Center
11:09PM 42.7158 -74.3392 89° East 315 362 10,900 -360 Descending Boston Center
11:10PM 42.7103 -74.2994 101° East 325 374 10,700 -1,140 Descending Boston Center
11:10PM 42.7011 -74.2314 100° East 283 326 9,800 -1,320 Descending Boston Center
11:11PM 42.6994 -74.2058 95° East 292 336 9,400 -1,980 Descending Boston Center
11:11PM 42.6881 -74.1236 101° East 289 333 7,800 -2,220 Descending Boston Center
11:12PM 42.6844 -74.0894 98° East 287 330 7,200 -2,100 Descending Boston Center
11:12PM 42.6769 -74.0189 98° East 277 319 5,700 -2,100 Descending Boston Center
11:13PM 42.6711 -73.9903 105° East 276 318 5,100 -2,100 Descending Boston Center
11:13PM 42.6619 -73.9111 99° East 270 311 3,600 -2,040 Descending Boston Center
11:14PM 42.6600 -73.8883 97° East 276 318 3,100 -1,500 Descending Boston Center
11:14PM 42.6506 -73.8233 101° East 228 262 2,100 -1,380 Descending Boston Center